createdAt,value
2023-03-16T00:01:09.540Z,1.70
2023-03-16T00:07:29.479Z,4.60
2023-03-16T00:10:56.625Z,5.17
2023-03-16T00:13:56.486Z,4.45
2023-03-16T00:17:16.529Z,4.07
2023-03-16T00:20:31.701Z,2.97
2023-03-16T00:26:55.665Z,3.65
2023-03-16T00:30:10.642Z,5.03
2023-03-16T00:36:31.683Z,2.80
2023-03-16T00:39:44.691Z,5.47
2023-03-16T00:42:58.698Z,3.50
2023-03-16T00:46:23.783Z,4.50
2023-03-16T00:49:23.726Z,4.03
2023-03-16T00:52:48.817Z,4.20
2023-03-16T00:59:03.801Z,2.55
2023-03-16T01:02:15.750Z,6.15
2023-03-16T01:05:16.777Z,3.40
2023-03-16T01:08:31.867Z,9.30
2023-03-16T01:11:43.773Z,3.70
2023-03-16T01:15:08.758Z,3.60
2023-03-16T01:18:20.876Z,3.30
2023-03-16T01:21:46.873Z,3.55
2023-03-16T01:24:46.900Z,5.55
2023-03-16T01:27:58.893Z,3.60
2023-03-16T01:31:11.928Z,5.53
2023-03-16T01:34:35.896Z,7.37
2023-03-16T01:37:48.008Z,2.70
2023-03-16T01:41:01.875Z,1.70
2023-03-16T01:44:02.902Z,6.87
2023-03-16T01:47:28.974Z,3.87
2023-03-16T01:50:53.038Z,2.77
2023-03-16T01:54:19.001Z,4.80
2023-03-16T01:57:43.915Z,2.80
2023-03-16T02:00:55.950Z,2.95
2023-03-16T02:04:23.057Z,4.00
2023-03-16T02:07:47.065Z,3.37
2023-03-16T02:11:12.000Z,4.90
2023-03-16T02:14:37.045Z,2.20
2023-03-16T02:18:01.072Z,4.90
2023-03-16T02:21:27.018Z,7.25
2023-03-16T02:24:51.048Z,2.53
2023-03-16T02:31:20.083Z,6.30
2023-03-16T02:34:44.056Z,4.03
2023-03-16T02:37:56.069Z,3.07
2023-03-16T02:41:22.117Z,3.27
2023-03-16T02:44:46.124Z,2.85
2023-03-16T02:48:13.130Z,4.27
2023-03-16T02:51:13.164Z,3.60
2023-03-16T02:54:38.194Z,8.67
2023-03-16T02:57:50.101Z,5.20
2023-03-16T03:01:02.285Z,3.80
2023-03-16T03:04:16.157Z,3.27
2023-03-16T03:07:43.234Z,6.17
2023-03-16T03:10:55.257Z,3.53
2023-03-16T03:14:19.226Z,4.23
2023-03-16T03:17:32.270Z,2.20
2023-03-16T03:21:01.231Z,3.50
2023-03-16T03:24:14.282Z,2.47
2023-03-16T03:27:27.290Z,9.00
2023-03-16T03:30:51.242Z,2.73
2023-03-16T03:34:04.281Z,2.70
2023-03-16T03:37:18.293Z,2.57
2023-03-16T03:40:43.305Z,4.50
2023-03-16T03:44:07.289Z,2.60
2023-03-16T03:47:19.334Z,4.63
2023-03-16T03:50:31.354Z,6.23
2023-03-16T03:53:58.311Z,3.37
2023-03-16T04:00:33.365Z,5.80
2023-03-16T04:03:46.378Z,3.65
2023-03-16T04:06:59.335Z,4.27
2023-03-16T04:10:26.602Z,6.43
2023-03-16T04:13:38.432Z,6.93
2023-03-16T04:16:51.393Z,2.47
2023-03-16T04:20:15.555Z,2.30
2023-03-16T04:23:29.498Z,2.73
2023-03-16T04:26:55.483Z,4.33
2023-03-16T04:30:08.402Z,4.60
2023-03-16T04:33:21.648Z,3.37
2023-03-16T04:36:49.435Z,3.73
2023-03-16T04:40:05.428Z,2.60
2023-03-16T04:43:32.458Z,4.75
2023-03-16T04:46:56.472Z,5.60
2023-03-16T04:50:09.482Z,2.77
2023-03-16T04:53:33.523Z,4.53
2023-03-16T04:56:46.512Z,5.33
2023-03-16T05:00:12.519Z,3.40
2023-03-16T05:03:25.512Z,2.70
2023-03-16T05:06:37.529Z,3.23
2023-03-16T05:09:50.591Z,3.43
2023-03-16T05:13:02.614Z,4.67
2023-03-16T05:16:29.641Z,3.67
2023-03-16T05:19:41.520Z,5.53
2023-03-16T05:26:08.603Z,3.37
2023-03-16T05:29:20.608Z,3.63
2023-03-16T05:32:46.690Z,2.80
2023-03-16T05:36:11.613Z,4.43
2023-03-16T05:39:36.679Z,6.60
2023-03-16T05:42:48.607Z,4.65
2023-03-16T05:46:00.735Z,4.60
2023-03-16T05:49:26.598Z,4.57
2023-03-16T05:52:38.663Z,3.43
2023-03-16T05:55:51.685Z,3.07
2023-03-16T05:59:04.681Z,4.00
2023-03-16T06:02:17.784Z,5.35
2023-03-16T06:05:49.691Z,4.20
2023-03-16T06:12:03.788Z,2.60
2023-03-16T06:15:27.675Z,3.00
2023-03-16T06:18:52.828Z,4.67
2023-03-16T06:22:18.834Z,2.50
2023-03-16T06:25:30.752Z,3.93
2023-03-16T06:28:42.763Z,3.07
2023-03-16T06:32:06.754Z,5.37
2023-03-16T06:35:19.749Z,3.97
2023-03-16T06:38:45.866Z,3.83
2023-03-16T06:41:57.849Z,3.50
2023-03-16T06:45:10.914Z,4.05
2023-03-16T06:48:22.956Z,5.73
2023-03-16T06:54:49.909Z,3.17
2023-03-16T06:58:13.859Z,2.70
2023-03-16T07:01:26.023Z,3.70
2023-03-16T07:04:38.950Z,3.15
2023-03-16T07:07:50.896Z,2.70
2023-03-16T07:11:17.984Z,3.23
2023-03-16T07:14:30.884Z,3.03
2023-03-16T07:17:40.082Z,2.90
2023-03-16T07:20:54.914Z,4.15
2023-03-16T07:24:16.913Z,3.60
2023-03-16T07:27:48.953Z,4.40
2023-03-16T07:31:23.076Z,3.23
2023-03-16T07:34:34.953Z,3.93
2023-03-16T07:37:46.975Z,2.40
2023-03-16T07:40:59.022Z,3.50
2023-03-16T07:44:24.980Z,5.73
2023-03-16T07:47:38.057Z,3.87
2023-03-16T07:50:52.056Z,3.60
2023-03-16T07:54:04.073Z,2.60
2023-03-16T07:57:16.010Z,3.20
2023-03-16T08:00:42.117Z,4.47
2023-03-16T08:03:55.128Z,2.90
2023-03-16T08:10:22.135Z,3.90
2023-03-16T08:13:44.120Z,5.87
2023-03-16T08:17:11.192Z,3.40
2023-03-16T08:20:42.228Z,3.70
2023-03-16T08:23:57.108Z,5.93
2023-03-16T08:27:21.239Z,5.53
2023-03-16T08:30:35.226Z,2.60
2023-03-16T08:34:00.152Z,2.33
2023-03-16T08:37:16.207Z,4.83
2023-03-16T08:40:30.462Z,4.95
2023-03-16T08:43:43.221Z,3.43
2023-03-16T08:46:44.438Z,3.35
2023-03-16T08:53:12.266Z,6.25
2023-03-16T08:56:37.309Z,4.40
2023-03-16T08:59:38.302Z,6.60
2023-03-16T09:03:04.280Z,3.55
2023-03-16T09:06:04.273Z,4.30
2023-03-16T09:09:31.242Z,6.43
2023-03-16T09:12:34.392Z,6.07
2023-03-16T09:15:47.256Z,3.77
2023-03-16T09:18:47.338Z,3.67
2023-03-16T09:21:59.348Z,2.85
2023-03-16T09:25:13.307Z,6.60
2023-03-16T09:28:25.355Z,3.07
2023-03-16T09:31:38.468Z,4.60
2023-03-16T09:35:03.337Z,2.77
2023-03-16T09:38:15.384Z,2.97
2023-03-16T09:41:42.315Z,8.17
2023-03-16T09:44:56.400Z,3.13
2023-03-16T09:48:21.388Z,3.05
2023-03-16T09:51:33.450Z,4.37
2023-03-16T09:54:57.416Z,4.77
2023-03-16T09:58:10.406Z,3.93
2023-03-16T10:01:24.448Z,3.53
2023-03-16T10:04:51.490Z,4.00
2023-03-16T10:08:07.521Z,3.53
2023-03-16T10:11:42.435Z,3.40
2023-03-16T10:14:56.476Z,9.67
2023-03-16T10:18:20.469Z,3.80
2023-03-16T10:21:35.448Z,4.30
2023-03-16T10:24:50.543Z,4.17
2023-03-16T10:28:05.568Z,4.17
2023-03-16T10:31:33.587Z,8.50
2023-03-16T10:34:33.540Z,4.57
2023-03-16T10:37:57.548Z,3.17
2023-03-16T10:40:57.541Z,6.53
2023-03-16T10:44:21.661Z,3.47
2023-03-16T10:47:39.693Z,3.20
2023-03-16T10:51:12.609Z,3.10
2023-03-16T10:54:32.629Z,6.80
2023-03-16T10:57:57.648Z,4.97
2023-03-16T11:01:09.675Z,6.87
2023-03-16T11:04:38.702Z,3.40
2023-03-16T11:07:38.676Z,3.77
2023-03-16T11:11:05.721Z,3.57
2023-03-16T11:14:17.767Z,6.57
2023-03-16T11:17:41.730Z,2.90
2023-03-16T11:20:55.682Z,4.47
2023-03-16T11:24:18.769Z,6.73
2023-03-16T11:27:31.709Z,5.87
2023-03-16T11:30:55.748Z,3.23
2023-03-16T11:34:14.677Z,3.67
2023-03-16T11:37:51.772Z,2.97
2023-03-16T11:41:22.738Z,4.80
2023-03-16T11:47:36.735Z,2.93
2023-03-16T11:51:02.838Z,3.00
2023-03-16T11:54:17.789Z,3.30
2023-03-16T11:57:39.840Z,3.73
2023-03-16T12:00:52.773Z,2.37
2023-03-16T12:04:25.893Z,2.63
2023-03-16T12:07:46.789Z,4.90
2023-03-16T12:11:13.866Z,4.70
2023-03-16T12:14:28.850Z,3.73
2023-03-16T12:17:52.911Z,3.40
2023-03-16T12:21:05.888Z,3.03
2023-03-16T12:24:30.875Z,5.27
2023-03-16T12:27:45.137Z,2.97
2023-03-16T12:31:10.917Z,2.90
2023-03-16T12:34:36.973Z,3.77
2023-03-16T12:38:00.905Z,5.13
2023-03-16T12:41:01.978Z,5.00
2023-03-16T12:44:31.186Z,6.77
2023-03-16T12:47:43.944Z,2.83
2023-03-16T12:51:15.042Z,2.77
2023-03-16T12:54:15.121Z,3.07
2023-03-16T12:57:39.055Z,4.20
2023-03-16T13:00:59.093Z,2.83
2023-03-16T13:04:26.105Z,8.23
2023-03-16T13:07:44.018Z,2.83
2023-03-16T13:11:24.006Z,3.47
2023-03-16T13:14:26.069Z,3.53
2023-03-16T13:17:56.014Z,3.57
2023-03-16T13:21:14.017Z,4.33
2023-03-16T13:24:39.063Z,3.10
2023-03-16T13:27:51.190Z,2.73
2023-03-16T13:31:05.395Z,2.50
2023-03-16T13:34:22.123Z,5.05
2023-03-16T13:40:41.211Z,2.73
2023-03-16T13:44:06.095Z,3.03
2023-03-16T13:47:06.191Z,2.90
2023-03-16T13:50:35.198Z,2.70
2023-03-16T13:53:47.207Z,2.30
2023-03-16T14:00:14.240Z,3.30
2023-03-16T14:03:40.401Z,2.83
2023-03-16T14:06:54.294Z,2.63
2023-03-16T14:10:14.243Z,2.20
2023-03-16T14:13:31.222Z,3.53
2023-03-16T14:17:00.253Z,2.40
2023-03-16T14:20:10.226Z,3.80
2023-03-16T14:23:44.493Z,2.77
2023-03-16T14:27:04.352Z,3.87
2023-03-16T14:30:42.373Z,4.50
2023-03-16T14:33:54.254Z,3.20
2023-03-16T14:37:06.324Z,3.73
2023-03-16T14:40:24.365Z,5.15
2023-03-16T14:43:52.365Z,4.70
2023-03-16T14:47:04.370Z,4.93
2023-03-16T14:50:30.385Z,2.23
2023-03-16T14:53:30.388Z,2.70
2023-03-16T14:56:59.338Z,2.30
2023-03-16T14:59:59.648Z,3.55
2023-03-16T15:03:23.370Z,3.47
2023-03-16T15:06:23.408Z,2.77
2023-03-16T15:09:55.400Z,5.30
2023-03-16T15:13:09.452Z,4.47
2023-03-16T15:19:32.437Z,5.33
2023-03-16T15:22:57.478Z,3.10
2023-03-16T15:26:11.443Z,3.35
2023-03-16T15:29:37.481Z,2.27
2023-03-16T15:32:37.468Z,2.50
2023-03-16T15:36:02.513Z,2.87
2023-03-16T15:39:14.564Z,5.53
2023-03-16T15:42:28.616Z,2.70
2023-03-16T15:45:45.570Z,2.45
2023-03-16T15:48:59.547Z,2.10
2023-03-16T15:51:59.491Z,3.80
2023-03-16T15:55:27.488Z,2.30
2023-03-16T15:58:39.626Z,4.67
2023-03-16T16:02:06.472Z,2.53
2023-03-16T16:05:19.730Z,3.30
2023-03-16T16:08:31.510Z,2.40
2023-03-16T16:11:56.632Z,3.03
2023-03-16T16:14:56.539Z,2.90
2023-03-16T16:18:22.649Z,4.30
2023-03-16T16:21:36.608Z,1.97
2023-03-16T16:24:50.627Z,2.20
2023-03-16T16:27:50.633Z,2.90
2023-03-16T16:31:05.652Z,3.60
2023-03-16T16:34:19.708Z,5.07
2023-03-16T16:37:32.632Z,3.10
2023-03-16T16:40:44.639Z,2.03
2023-03-16T16:44:08.629Z,2.35
2023-03-16T16:47:20.710Z,14.60
2023-03-16T16:50:49.738Z,26.77
2023-03-16T16:53:52.754Z,24.53
2023-03-16T16:57:16.811Z,17.40
2023-03-16T17:00:30.739Z,21.57
2023-03-16T17:03:42.749Z,25.90
2023-03-16T17:06:56.711Z,23.85
2023-03-16T17:10:08.691Z,43.25
2023-03-16T17:13:23.866Z,30.75
2023-03-16T17:16:48.779Z,20.27
2023-03-16T17:19:52.798Z,19.00
2023-03-16T17:23:18.842Z,16.60
2023-03-16T17:26:31.790Z,13.63
2023-03-16T17:29:56.900Z,4.77
2023-03-16T17:32:57.056Z,11.75
2023-03-16T17:36:09.871Z,15.10
2023-03-16T17:39:23.868Z,8.00
2023-03-16T17:42:35.863Z,10.50
2023-03-16T17:45:47.832Z,8.10
2023-03-16T17:49:11.931Z,6.10
2023-03-16T17:52:24.859Z,6.63
2023-03-16T17:55:50.954Z,5.93
2023-03-16T17:59:02.948Z,3.20
2023-03-16T18:02:15.939Z,5.50
2023-03-16T18:05:41.909Z,3.57
2023-03-16T18:08:53.931Z,5.47
2023-03-16T18:12:16.940Z,5.07
2023-03-16T18:15:30.983Z,6.20
2023-03-16T18:18:55.947Z,3.90
2023-03-16T18:21:55.977Z,5.00
2023-03-16T18:25:20.066Z,4.30
2023-03-16T18:28:31.993Z,3.97
2023-03-16T18:34:49.984Z,1.80
2023-03-16T18:38:02.123Z,4.60
2023-03-16T18:41:14.051Z,2.80
2023-03-16T18:44:39.055Z,3.27
2023-03-16T18:47:51.097Z,3.17
2023-03-16T18:51:17.098Z,4.17
2023-03-16T18:54:34.079Z,4.60
2023-03-16T18:57:46.096Z,2.40
2023-03-16T19:00:47.139Z,3.75
2023-03-16T19:03:59.169Z,3.65
2023-03-16T19:07:13.166Z,4.30
2023-03-16T19:10:39.172Z,4.00
2023-03-16T19:13:52.580Z,2.47
2023-03-16T19:17:15.223Z,3.30
2023-03-16T19:20:15.301Z,2.70
2023-03-16T19:23:42.105Z,3.75
2023-03-16T19:26:54.123Z,3.83
2023-03-16T19:30:18.178Z,2.73
2023-03-16T19:33:30.252Z,3.10
2023-03-16T19:36:54.253Z,2.45
2023-03-16T19:40:08.251Z,6.60
2023-03-16T19:43:36.286Z,2.40
2023-03-16T19:49:40.265Z,2.77
2023-03-16T19:52:52.223Z,5.23
2023-03-16T19:56:18.343Z,2.00
2023-03-16T19:59:30.314Z,2.70
2023-03-16T20:02:54.348Z,2.90
2023-03-16T20:06:18.335Z,2.80
2023-03-16T20:09:18.417Z,2.70
2023-03-16T20:12:46.364Z,3.00
2023-03-16T20:15:58.362Z,2.97
2023-03-16T20:19:23.301Z,4.23
2023-03-16T20:22:36.371Z,4.67
2023-03-16T20:26:02.716Z,2.30
2023-03-16T20:29:14.432Z,4.60
2023-03-16T20:32:39.422Z,2.83
2023-03-16T20:36:05.407Z,2.10
2023-03-16T20:39:25.384Z,2.80
2023-03-16T20:42:38.440Z,3.47
2023-03-16T20:46:04.381Z,5.07
2023-03-16T20:49:16.444Z,4.37
2023-03-16T20:52:40.467Z,2.40
2023-03-16T20:55:41.836Z,4.07
2023-03-16T20:59:09.468Z,3.13
2023-03-16T21:02:22.460Z,2.93
2023-03-16T21:05:46.508Z,3.70
2023-03-16T21:08:46.498Z,2.57
2023-03-16T21:12:13.440Z,2.13
2023-03-16T21:15:25.489Z,4.00
2023-03-16T21:18:51.482Z,3.60
2023-03-16T21:21:51.613Z,2.73
2023-03-16T21:25:03.547Z,2.20
2023-03-16T21:28:15.605Z,2.40
2023-03-16T21:31:39.625Z,2.10
2023-03-16T21:34:53.634Z,3.67
2023-03-16T21:38:13.589Z,2.10
2023-03-16T21:41:25.589Z,2.00
2023-03-16T21:44:37.643Z,4.77
2023-03-16T21:47:49.716Z,3.00
2023-03-16T21:51:15.647Z,1.80
2023-03-16T21:54:16.610Z,2.53
2023-03-16T21:57:29.657Z,2.47
2023-03-16T22:00:42.628Z,2.13
2023-03-16T22:04:14.713Z,2.10
2023-03-16T22:07:28.746Z,1.77
2023-03-16T22:10:53.679Z,2.63
2023-03-16T22:13:54.777Z,2.60
2023-03-16T22:17:08.701Z,2.83
2023-03-16T22:20:08.762Z,2.40
2023-03-16T22:23:35.735Z,3.60
2023-03-16T22:26:47.705Z,2.13
2023-03-16T22:30:08.966Z,2.63
2023-03-16T22:33:24.817Z,1.70
2023-03-16T22:36:48.772Z,2.03
2023-03-16T22:40:09.776Z,2.00
2023-03-16T22:46:51.864Z,2.10
2023-03-16T22:50:04.038Z,2.57
2023-03-16T22:53:05.781Z,2.70
2023-03-16T22:56:34.874Z,2.07
2023-03-16T22:59:46.842Z,2.00
2023-03-16T23:02:58.874Z,1.63
2023-03-16T23:06:10.842Z,3.00
2023-03-16T23:09:34.872Z,1.97
2023-03-16T23:12:48.871Z,2.77
2023-03-16T23:16:13.884Z,3.17
2023-03-16T23:19:30.936Z,2.13
2023-03-16T23:22:42.921Z,2.27
2023-03-16T23:25:42.977Z,1.70
2023-03-16T23:29:09.935Z,2.23
2023-03-16T23:32:09.940Z,2.40
2023-03-16T23:35:37.984Z,3.00
2023-03-16T23:38:37.986Z,2.20
2023-03-16T23:42:02.012Z,2.80
2023-03-16T23:45:16.008Z,2.03
2023-03-16T23:48:40.955Z,2.67
2023-03-16T23:51:53.032Z,2.77
2023-03-16T23:55:06.076Z,1.87
2023-03-16T23:58:09.108Z,1.90
